Time;durP1;ratioP1;P1;durP2;ratioP2;P2;SDS_P1;SDS_P2;PMS_P1;PMS_P2;Temp;Humidity;BMP_temperature;BMP_pressure;BME280_temperature;BME280_humidity;BME280_pressure;Samples;Min_cycle;Max_cycle;Signal;HPM_P1;HPM_P2
2021/04/25 00:02:09;;;;;;;12.70;6.15;;;;;;;12.46;31.67;101100.63;1816565;79;21544;-76
2021/04/25 00:04:37;;;;;;;11.63;6.47;;;;;;;12.45;31.71;101103.81;1792873;79;26810;-76
2021/04/25 00:07:05;;;;;;;12.23;6.50;;;;;;;12.41;31.81;101101.92;1816341;79;21070;-77
2021/04/25 00:09:33;;;;;;;14.23;7.75;;;;;;;12.39;31.78;101099.88;1793127;80;21109;-77
2021/04/25 00:12:00;;;;;;;17.17;7.87;;;;;;;12.38;31.84;101103.56;1801936;79;21062;-77
2021/04/25 00:14:29;;;;;;;;;;;;;;;12.36;31.85;101093.98;1795471;79;21170;-78
2021/04/25 00:16:56;;;;;;;20.32;8.65;;;;;;;12.31;31.88;101097.61;1816349;79;20267;-77
2021/04/25 00:19:23;;;;;;;17.07;8.28;;;;;;;12.27;31.99;101094.91;1816300;79;21070;-76
2021/04/25 00:21:51;;;;;;;20.72;9.23;;;;;;;12.23;32.09;101093.02;1786920;79;21054;-78
2021/04/25 00:24:18;;;;;;;19.45;8.28;;;;;;;12.22;32.11;101090.47;1792792;79;21102;-78
2021/04/25 00:26:46;;;;;;;19.90;8.65;;;;;;;12.27;31.97;101089.04;1816195;79;21137;-78
2021/04/25 00:29:13;;;;;;;;;;;;;;;12.27;32.17;101088.20;1818817;79;21077;-77
2021/04/25 00:31:41;;;;;;;15.75;7.05;;;;;;;12.24;32.13;101087.16;1811434;79;20267;-75
2021/04/25 00:34:08;;;;;;;14.30;6.42;;;;;;;12.22;32.13;101090.00;1808565;79;21128;-78
2021/04/25 00:36:35;;;;;;;15.80;6.75;;;;;;;12.21;32.15;101087.45;1765928;80;21196;-76
2021/04/25 00:39:04;;;;;;;14.83;6.45;;;;;;;12.21;32.22;101087.45;1811126;79;21129;-78
2021/04/25 00:41:32;;;;;;;12.25;5.95;;;;;;;12.21;32.33;101086.11;1792981;79;21180;-77
2021/04/25 00:44:00;;;;;;;14.40;5.85;;;;;;;12.19;32.38;101080.90;1818038;79;21128;-77
2021/04/25 00:46:27;;;;;;;;;;;;;;;12.10;32.56;101084.00;1820697;79;21136;-77
2021/04/25 00:48:54;;;;;;;16.32;5.42;;;;;;;12.09;32.65;101076.11;1817992;79;20208;-76
2021/04/25 00:51:23;;;;;;;16.17;5.40;;;;;;;12.06;32.69;101075.06;1788694;79;21065;-78
2021/04/25 00:53:50;;;;;;;9.73;5.00;;;;;;;12.04;32.68;101071.20;1817930;79;21085;-78
2021/04/25 00:56:20;;;;;;;9.33;4.60;;;;;;;12.04;32.61;101077.06;1817930;79;21148;-78
2021/04/25 00:58:48;;;;;;;12.85;5.62;;;;;;;12.02;32.63;101079.05;1818029;79;21081;-77
2021/04/25 01:01:16;;;;;;;7.70;4.47;;;;;;;12.01;32.63;101073.34;1818126;79;21041;-77
2021/04/25 01:03:43;;;;;;;9.93;5.08;;;;;;;11.99;32.62;101068.13;1818077;79;21512;-76
2021/04/25 01:06:10;;;;;;;10.08;5.12;;;;;;;11.98;32.66;101071.78;1818084;79;21068;-76
2021/04/25 01:08:38;;;;;;;14.85;5.00;;;;;;;12.00;32.73;101068.97;1818022;79;21136;-75
2021/04/25 01:11:05;;;;;;;;;;;;;;;11.99;32.73;101068.13;1820601;79;21163;-77
2021/04/25 01:13:32;;;;;;;11.18;5.33;;;;;;;11.99;32.79;101067.25;1818060;79;20486;-76
2021/04/25 01:16:00;;;;;;;14.78;6.42;;;;;;;11.95;32.85;101064.05;1817896;79;21074;-78
2021/04/25 01:18:27;;;;;;;;;;;;;;;11.93;32.89;101061.50;1820739;79;21152;-77
2021/04/25 01:21:01;;;;;;;14.93;6.10;;;;;;;11.93;32.93;101060.66;1818033;79;20215;-79
2021/04/25 01:23:28;;;;;;;16.05;6.22;;;;;;;11.92;33.01;101058.48;1817942;79;21167;-79
2021/04/25 01:25:55;;;;;;;13.18;6.55;;;;;;;11.94;33.03;101058.31;1818136;79;21072;-76
2021/04/25 01:28:22;;;;;;;13.65;6.65;;;;;;;11.92;33.02;101054.45;1818138;78;21064;-79
2021/04/25 01:30:49;;;;;;;13.25;6.53;;;;;;;11.92;33.02;101060.32;1818054;79;21002;-76
2021/04/25 01:33:17;;;;;;;12.90;7.60;;;;;;;11.92;33.01;101057.64;1818017;79;21096;-77
2021/04/25 01:35:44;;;;;;;17.57;9.00;;;;;;;11.90;33.02;101055.62;1817961;79;21045;-77
2021/04/25 01:38:11;;;;;;;;;;;;;;;11.87;33.01;101058.59;1820632;79;21049;-77
2021/04/25 01:40:38;;;;;;;12.00;7.42;;;;;;;11.83;33.08;101055.36;1788606;79;20244;-79
2021/04/25 01:43:05;;;;;;;;;;;;;;;11.79;33.25;101045.89;1820810;79;21163;-77
2021/04/25 01:45:32;;;;;;;13.68;6.62;;;;;;;11.74;33.38;101054.06;1818085;79;20216;-78
2021/04/25 01:48:01;;;;;;;;;;;;;;;11.69;33.41;101053.17;1820842;79;21531;-78
2021/04/25 01:50:29;;;;;;;12.70;6.47;;;;;;;11.66;33.41;101048.94;1818192;78;20263;-78
2021/04/25 01:52:57;;;;;;;12.23;6.10;;;;;;;11.47;33.63;101049.05;1818029;79;21119;-77
2021/04/25 01:55:26;;;;;;;13.22;7.40;;;;;;;11.53;33.63;101052.47;1818110;79;21080;-76
2021/04/25 01:57:53;;;;;;;14.07;7.20;;;;;;;11.55;33.56;101051.84;1818145;79;21045;-79
2021/04/25 02:00:35;;;;;;;;;;;;;;;11.53;33.56;101050.28;1820799;79;21056;-79
2021/04/25 02:03:03;;;;;;;10.95;6.90;;;;;;;11.49;33.61;101052.92;1818296;78;20220;-79
2021/04/25 02:05:31;;;;;;;13.48;6.55;;;;;;;11.43;33.60;101054.37;1818111;79;21092;-80
2021/04/25 02:07:59;;;;;;;14.18;6.70;;;;;;;11.37;33.65;101064.36;1816265;77;21166;-76
2021/04/25 02:10:26;;;;;;;;;;;;;;;11.30;33.84;101059.23;1788766;79;21183;-77
2021/04/25 02:12:53;;;;;;;14.38;6.85;;;;;;;11.28;33.95;101054.02;1799246;79;20240;-76
2021/04/25 02:15:22;;;;;;;12.70;6.75;;;;;;;11.23;34.05;101068.38;1792776;79;21070;-76
2021/04/25 02:17:49;;;;;;;14.33;7.20;;;;;;;11.23;34.14;101068.38;1808754;77;21135;-77
2021/04/25 02:20:19;;;;;;;16.05;7.08;;;;;;;11.22;34.19;101068.03;1809427;77;21147;-76
2021/04/25 02:22:46;;;;;;;13.75;7.67;;;;;;;11.20;34.11;101062.45;1806539;77;21109;-77
2021/04/25 02:25:15;;;;;;;;;;;;;;;11.17;34.12;101056.41;1794541;78;21161;-76
2021/04/25 02:27:42;;;;;;;12.55;6.22;;;;;;;11.15;34.14;101059.72;1804486;79;20236;-77
2021/04/25 02:30:12;;;;;;;;;;;;;;;11.13;34.18;101061.72;1810968;78;21568;-76
2021/04/25 02:32:40;;;;;;;11.08;6.47;;;;;;;11.13;34.18;101063.05;1809544;79;20455;-77
2021/04/25 02:35:09;;;;;;;13.28;7.00;;;;;;;11.07;34.22;101061.44;1792964;79;21113;-77
2021/04/25 02:37:37;;;;;;;11.85;6.37;;;;;;;10.98;34.38;101063.16;1815800;79;21221;-77
2021/04/25 02:40:10;;;;;;;12.85;6.72;;;;;;;10.96;34.50;101058.45;1816306;79;21062;-80
2021/04/25 02:42:38;;;;;;;10.53;6.28;;;;;;;10.96;34.57;101060.30;1792968;79;21548;-77
2021/04/25 02:45:07;;;;;;;10.18;6.60;;;;;;;10.93;34.60;101054.72;1816329;79;21185;-76
2021/04/25 02:47:35;;;;;;;13.60;6.67;;;;;;;10.91;34.65;101051.35;1791418;80;21185;-78
2021/04/25 02:50:03;;;;;;;11.75;7.15;;;;;;;10.91;34.69;101055.38;1816362;79;21062;-79
2021/04/25 02:52:30;;;;;;;13.70;7.35;;;;;;;10.90;34.78;101059.02;1775402;80;21130;-79
2021/04/25 02:54:57;;;;;;;16.42;8.13;;;;;;;10.90;34.77;101048.30;1834152;78;21513;-77
2021/04/25 02:57:24;;;;;;;16.30;9.60;;;;;;;10.91;34.85;101052.69;1816353;79;21106;-81
2021/04/25 02:59:51;;;;;;;;;;;;;;;10.90;34.83;101053.66;1795452;79;21066;-82
2021/04/25 03:02:18;;;;;;;24.70;13.22;;;;;;;10.89;34.78;101049.30;1816222;79;20228;-80
2021/04/25 03:04:46;;;;;;;32.75;14.30;;;;;;;10.86;34.81;101046.43;1792929;80;21185;-77
2021/04/25 03:07:13;;;;;;;26.52;14.68;;;;;;;10.84;34.82;101054.25;1816348;79;21505;-78
2021/04/25 03:09:40;;;;;;;;;;;;;;;10.86;34.78;101052.28;1813627;79;21126;-80
2021/04/25 03:12:08;;;;;;;22.17;12.23;;;;;;;10.84;34.86;101050.23;1804486;78;20260;-79
2021/04/25 03:14:35;;;;;;;18.12;10.30;;;;;;;10.81;34.96;101058.08;1808182;78;21160;-79
2021/04/25 03:17:02;;;;;;;19.73;10.55;;;;;;;10.82;35.08;101056.25;1805103;79;21051;-79
2021/04/25 03:19:29;;;;;;;;;;;;;;;10.82;35.08;101051.73;1782932;79;21132;-76
2021/04/25 03:21:56;;;;;;;16.93;9.20;;;;;;;10.87;35.10;101049.95;1809828;79;20532;-78
2021/04/25 03:24:26;;;;;;;15.70;8.78;;;;;;;10.90;35.05;101046.48;1771673;80;21181;-77
2021/04/25 03:26:53;;;;;;;;;;;;;;;10.92;34.89;101049.86;1776301;79;21197;-76
2021/04/25 03:29:19;;;;;;;16.60;7.97;;;;;;;10.93;34.86;101050.70;1808312;79;20244;-78
2021/04/25 03:31:47;;;;;;;13.03;8.25;;;;;;;10.92;34.93;101050.35;1813389;78;21169;-78
2021/04/25 03:34:14;;;;;;;10.45;7.05;;;;;;;10.92;34.87;101049.86;1788089;80;21180;-78
2021/04/25 03:36:41;;;;;;;13.00;7.85;;;;;;;10.97;34.89;101056.12;1805730;79;21651;-77
2021/04/25 03:39:08;;;;;;;;;;;;;;;11.02;34.87;101053.84;1810741;78;21181;-76
2021/04/25 03:41:35;;;;;;;11.30;7.17;;;;;;;11.05;34.84;101052.72;1806408;79;20263;-79
2021/04/25 03:44:02;;;;;;;;;;;;;;;11.07;34.90;101052.90;1810285;79;21461;-78
2021/04/25 03:46:30;;;;;;;10.25;6.22;;;;;;;11.10;34.98;101055.30;1808123;78;20597;-75
2021/04/25 03:48:57;;;;;;;15.38;8.35;;;;;;;11.13;34.97;101058.19;1804113;79;21779;-77
2021/04/25 03:51:24;;;;;;;;;;;;;;;11.18;34.88;101053.23;1818788;78;21146;-78
2021/04/25 03:53:51;;;;;;;28.17;14.68;;;;;;;11.23;34.90;101056.31;1815215;78;20225;-77
2021/04/25 03:56:19;;;;;;;29.12;15.58;;;;;;;11.27;34.83;101055.02;1792846;79;21594;-77
2021/04/25 03:58:46;;;;;;;36.85;18.50;;;;;;;11.34;34.83;101052.58;1815291;79;21612;-77
2021/04/25 04:01:13;;;;;;;35.17;18.50;;;;;;;11.38;34.73;101048.61;1792269;80;21581;-79
2021/04/25 04:03:40;;;;;;;;;;;;;;;11.42;34.68;101050.00;1818106;79;21486;-76
2021/04/25 04:06:07;;;;;;;28.02;14.18;;;;;;;11.42;34.55;101050.84;1814863;79;20264;-77
2021/04/25 04:08:34;;;;;;;;;;;;;;;11.45;34.39;101056.42;1794143;79;21177;-78
2021/04/25 04:11:01;;;;;;;23.55;13.13;;;;;;;11.49;34.28;101051.11;1789751;80;20296;-76
2021/04/25 04:13:28;;;;;;;22.37;12.70;;;;;;;11.52;34.21;101058.84;1785606;79;21196;-77
2021/04/25 04:15:55;;;;;;;;;;;;;;;11.58;34.22;101053.36;1817304;79;21181;-76
2021/04/25 04:18:22;;;;;;;30.92;13.90;;;;;;;11.64;34.26;101058.98;1814951;79;20271;-79
2021/04/25 04:20:49;;;;;;;;;;;;;;;11.72;34.23;101057.37;1817696;79;21165;-76
2021/04/25 04:23:16;;;;;;;36.80;16.10;;;;;;;11.79;34.18;101053.11;1816077;79;20232;-78
2021/04/25 04:25:43;;;;;;;47.65;20.27;;;;;;;11.88;34.10;101054.91;1792820;80;21078;-77
2021/04/25 04:28:10;;;;;;;;;;;;;;;11.99;34.10;101056.05;1817957;79;21054;-78
2021/04/25 04:30:37;;;;;;;56.65;23.50;;;;;;;12.09;34.09;101043.89;1802847;77;20215;-76
2021/04/25 04:33:04;;;;;;;69.70;27.73;;;;;;;12.19;33.97;101050.85;1785374;80;21060;-77
2021/04/25 04:35:31;;;;;;;67.12;26.12;;;;;;;12.29;33.81;101049.92;1784809;80;21191;-78
2021/04/25 04:37:59;;;;;;;56.90;23.75;;;;;;;12.38;33.86;101048.99;1784793;79;21168;-78
2021/04/25 04:40:27;;;;;;;43.17;19.50;;;;;;;12.50;33.90;101047.76;1756205;80;21202;-77
2021/04/25 04:42:54;;;;;;;42.78;17.82;;;;;;;12.62;33.77;101054.55;1784558;80;21188;-77
2021/04/25 04:45:21;;;;;;;;;;;;;;;12.71;33.68;101054.11;1787224;80;21163;-78
2021/04/25 04:47:48;;;;;;;16.07;7.05;;;;;;;12.81;33.71;101059.38;1783707;80;20273;-77
2021/04/25 04:50:17;;;;;;;16.42;6.35;;;;;;;12.88;33.36;101054.56;1783743;80;21183;-75
2021/04/25 04:52:46;;;;;;;24.18;10.10;;;;;;;12.98;32.98;101053.61;1784476;80;21346;-77
2021/04/25 04:55:15;;;;;;;19.90;9.75;;;;;;;13.07;32.61;101051.31;1784350;80;21591;-76
2021/04/25 04:57:43;;;;;;;18.87;9.55;;;;;;;13.14;32.47;101056.40;1784087;80;21639;-78
2021/04/25 05:00:11;;;;;;;13.78;7.35;;;;;;;13.23;32.37;101055.47;1784130;79;22106;-77
2021/04/25 05:02:39;;;;;;;10.98;6.20;;;;;;;13.29;32.26;101049.44;1759554;79;21105;-77
2021/04/25 05:05:08;;;;;;;13.08;4.87;;;;;;;13.34;32.18;101051.64;1784901;79;21434;-77
2021/04/25 05:07:35;;;;;;;9.28;4.50;;;;;;;13.33;31.93;101045.42;1784391;80;21159;-76
2021/04/25 05:10:03;;;;;;;8.50;4.25;;;;;;;13.26;32.12;101044.87;1784504;80;21167;-80
2021/04/25 05:12:30;;;;;;;6.17;4.17;;;;;;;13.25;32.14;101044.54;1799446;79;21202;-76
2021/04/25 05:14:58;;;;;;;8.13;4.10;;;;;;;13.28;32.18;101050.95;1807870;77;21173;-78
2021/04/25 05:17:26;;;;;;;4.33;3.65;;;;;;;13.31;32.38;101047.95;1825318;77;21164;-77
2021/04/25 05:19:53;;;;;;;6.28;3.62;;;;;;;13.39;32.37;101038.54;1849923;77;21498;-78
2021/04/25 05:22:21;;;;;;;6.17;3.80;;;;;;;13.50;32.27;101046.34;1826681;78;21129;-80
2021/04/25 05:24:49;;;;;;;9.65;4.08;;;;;;;13.57;32.37;101037.93;1851383;77;21130;-77
2021/04/25 05:27:16;;;;;;;8.90;4.65;;;;;;;13.65;32.17;101036.61;1851036;77;21178;-79
2021/04/25 05:29:43;;;;;;;7.05;4.35;;;;;;;13.73;32.17;101041.70;1795019;77;21215;-79
2021/04/25 05:32:11;;;;;;;5.15;3.47;;;;;;;13.81;32.23;101036.33;1817441;78;21073;-79
2021/04/25 05:34:39;;;;;;;7.17;4.70;;;;;;;13.90;31.80;101028.61;1816158;79;21251;-75
2021/04/25 05:37:06;;;;;;;;;;;;;;;14.01;31.80;101026.93;1824625;77;21647;-78
2021/04/25 05:39:33;;;;;;;7.40;4.15;;;;;;;14.10;31.50;101025.92;1849942;76;20262;-79
2021/04/25 05:42:00;;;;;;;13.75;5.83;;;;;;;14.17;31.62;101025.61;1779724;79;21882;-80
2021/04/25 05:44:28;;;;;;;;;;;;;;;14.28;31.35;101023.58;1763372;79;21690;-77
2021/04/25 05:46:56;;;;;;;22.87;10.98;;;;;;;14.32;31.07;101014.99;1815993;78;20278;-76
2021/04/25 05:49:24;;;;;;;55.83;20.75;;;;;;;14.34;31.14;101008.08;1812643;79;21160;-77
2021/04/25 05:51:51;;;;;;;;;;;;;;;14.42;31.22;101008.08;1786122;79;21642;-78
2021/04/25 05:54:18;;;;;;;118.05;44.13;;;;;;;14.52;31.09;101006.58;1813116;79;20287;-78
2021/04/25 05:56:45;;;;;;;;;;;;;;;14.55;31.17;101003.05;1818218;79;21175;-80
2021/04/25 05:59:12;;;;;;;101.65;36.35;;;;;;;14.57;30.47;101004.20;1815381;79;20534;-77
2021/04/25 06:01:40;;;;;;;82.75;29.42;;;;;;;14.55;30.58;101004.89;1815182;78;21239;-78
2021/04/25 06:04:07;;;;;;;;;;;;;;;14.65;31.02;100999.64;1761998;79;21208;-78
2021/04/25 06:06:34;;;;;;;69.12;25.23;;;;;;;14.82;30.82;100999.63;1787582;79;20336;-76
2021/04/25 06:09:05;;;;;;;71.07;24.20;;;;;;;15.00;30.91;101000.23;1816527;79;21176;-79
2021/04/25 06:11:34;;;;;;;76.02;27.75;;;;;;;15.20;30.08;101009.59;1816817;78;21168;-78
2021/04/25 06:14:02;;;;;;;118.72;43.35;;;;;;;15.26;29.68;101007.20;1818031;79;21098;-79
2021/04/25 06:16:29;;;;;;;149.40;51.68;;;;;;;15.25;29.44;100994.73;1818074;79;21572;-79
2021/04/25 06:18:56;;;;;;;77.82;32.13;;;;;;;15.18;29.50;101007.59;1818221;78;21618;-79
2021/04/25 06:21:25;;;;;;;51.68;18.73;;;;;;;15.14;29.77;101006.25;1788427;79;21212;-77
2021/04/25 06:23:53;;;;;;;66.67;28.73;;;;;;;15.17;29.85;101010.44;1786943;79;21057;-75
2021/04/25 06:26:21;;;;;;;66.30;24.98;;;;;;;15.14;29.81;101004.91;1788408;79;21187;-79
2021/04/25 06:28:49;;;;;;;65.78;25.15;;;;;;;15.18;29.76;101006.24;1816666;79;21275;-79
2021/04/25 06:31:18;;;;;;;49.00;21.25;;;;;;;15.33;30.00;101004.98;1763878;79;21168;-77
2021/04/25 06:33:46;;;;;;;61.53;24.90;;;;;;;15.59;29.97;101004.70;1815848;79;21460;-76
2021/04/25 06:36:15;;;;;;;90.32;34.08;;;;;;;15.91;29.38;100995.57;1814815;79;21189;-79
2021/04/25 06:38:44;;;;;;;75.50;28.10;;;;;;;16.18;29.79;100988.77;1790652;79;21161;-78
2021/04/25 06:41:11;;;;;;;79.12;29.45;;;;;;;16.52;29.60;100998.26;1815296;78;21605;-78
2021/04/25 06:43:39;;;;;;;69.80;25.05;;;;;;;16.80;29.26;100989.55;1814631;79;21197;-81
2021/04/25 06:46:06;;;;;;;108.00;37.40;;;;;;;17.07;28.96;100992.12;1791174;80;21181;-78
2021/04/25 06:48:35;;;;;;;88.37;32.45;;;;;;;17.21;28.63;100988.07;1815134;79;21681;-78
2021/04/25 06:51:04;;;;;;;44.63;17.27;;;;;;;17.28;28.23;100987.30;1798540;79;21177;-78
2021/04/25 06:53:31;;;;;;;70.15;20.10;;;;;;;17.23;28.33;100984.64;1796933;79;21192;-80
2021/04/25 06:55:58;;;;;;;44.63;15.30;;;;;;;17.12;27.37;100990.55;1779921;79;21164;-78
2021/04/25 06:58:28;;;;;;;43.02;16.95;;;;;;;16.88;27.59;100987.59;1797888;79;21675;-78
2021/04/25 07:00:55;;;;;;;64.67;21.55;;;;;;;16.75;27.87;100987.41;1798027;79;21675;-80
2021/04/25 07:03:22;;;;;;;;;;;;;;;16.67;27.92;100981.56;1800590;78;21188;-80
2021/04/25 07:05:50;;;;;;;18.05;7.50;;;;;;;16.60;28.24;100988.72;1798208;79;20223;-80
2021/04/25 07:08:17;;;;;;;10.30;4.78;;;;;;;16.68;28.76;100988.64;1797747;79;21620;-83
2021/04/25 07:10:44;;;;;;;;;;;;;;;16.91;28.31;100981.83;1778863;80;21183;-79
2021/04/25 07:13:11;;;;;;;18.07;9.48;;;;;;;17.24;27.95;100988.19;1784930;79;20226;-81
2021/04/25 07:15:38;;;;;;;20.88;5.55;;;;;;;17.54;27.81;100977.31;1779877;78;21210;-80
2021/04/25 07:18:06;;;;;;;8.28;5.37;;;;;;;17.82;27.31;100974.20;1792422;80;21442;-79
2021/04/25 07:20:35;;;;;;;12.03;5.50;;;;;;;18.02;27.46;100981.16;1785034;77;21199;-76
2021/04/25 07:23:03;;;;;;;9.15;4.20;;;;;;;18.17;26.84;100975.16;1783619;80;21227;-78
2021/04/25 07:25:30;;;;;;;6.75;3.70;;;;;;;18.54;26.84;100969.61;1755153;77;21195;-77
2021/04/25 07:27:58;;;;;;;13.13;5.40;;;;;;;19.07;26.06;100960.44;1800735;79;21206;-79
2021/04/25 07:30:27;;;;;;;20.60;4.50;;;;;;;19.30;25.68;100970.45;1796317;79;21179;-78
2021/04/25 07:32:54;;;;;;;10.75;4.30;;;;;;;19.37;24.92;100965.06;1754387;80;21191;-78
2021/04/25 07:35:22;;;;;;;9.63;4.10;;;;;;;19.43;25.35;100961.52;1754886;80;21176;-77
2021/04/25 07:37:50;;;;;;;11.45;4.00;;;;;;;19.62;25.35;100946.34;1791853;79;21193;-77
2021/04/25 07:40:17;;;;;;;6.70;3.87;;;;;;;19.86;24.80;100943.06;1782985;80;21203;-79
2021/04/25 07:42:45;;;;;;;6.47;2.98;;;;;;;20.09;24.89;100945.91;1812144;77;21685;-79
2021/04/25 07:45:13;;;;;;;6.12;3.58;;;;;;;20.34;24.58;100946.92;1815338;78;21128;-79
2021/04/25 07:47:41;;;;;;;11.28;3.92;;;;;;;20.58;24.30;100943.29;1815598;79;21096;-76
2021/04/25 07:50:09;;;;;;;4.58;2.98;;;;;;;20.80;24.44;100932.95;1814419;79;21102;-80
2021/04/25 07:52:36;;;;;;;4.03;3.00;;;;;;;21.03;24.00;100942.86;1754433;80;21484;-78
2021/04/25 07:55:04;;;;;;;9.38;2.90;;;;;;;21.20;23.63;100938.56;1785603;77;21652;-75
2021/04/25 07:57:32;;;;;;;12.55;3.60;;;;;;;21.27;23.25;100933.11;1786395;77;21164;-80
2021/04/25 07:59:59;;;;;;;6.53;3.47;;;;;;;21.28;23.06;100935.60;1783106;79;21223;-79
2021/04/25 08:02:27;;;;;;;6.80;3.60;;;;;;;21.24;22.84;100915.29;1782885;80;21171;-77
2021/04/25 08:04:54;;;;;;;;;;;;;;;21.15;22.87;100913.87;1757943;80;21231;-78
2021/04/25 08:07:21;;;;;;;9.58;3.67;;;;;;;20.99;23.03;100931.55;1784175;80;20250;-81
2021/04/25 08:09:48;;;;;;;6.35;3.83;;;;;;;20.82;23.19;100925.42;1791590;77;21203;-79
2021/04/25 08:12:16;;;;;;;4.50;3.02;;;;;;;20.70;23.41;100926.06;1784327;77;21199;-78
2021/04/25 08:14:44;;;;;;;7.17;3.37;;;;;;;20.51;23.23;100927.79;1783427;79;21183;-77
2021/04/25 08:17:12;;;;;;;9.18;3.60;;;;;;;20.36;23.20;100927.69;1783394;79;21503;-80
2021/04/25 08:19:41;;;;;;;;;;;;;;;20.20;23.28;100924.86;1780301;80;21178;-77
2021/04/25 08:22:08;;;;;;;8.53;3.83;;;;;;;20.06;23.64;100928.11;1777086;80;20282;-76
2021/04/25 08:24:35;;;;;;;6.72;3.50;;;;;;;19.96;23.77;100924.98;1781270;79;21181;-78
2021/04/25 08:27:03;;;;;;;7.35;3.77;;;;;;;19.93;24.21;100918.59;1815928;79;21163;-76
2021/04/25 08:29:32;;;;;;;6.25;4.08;;;;;;;19.99;24.36;100909.09;1814667;77;21164;-77
2021/04/25 08:31:59;;;;;;;7.20;3.65;;;;;;;20.08;24.33;100907.52;1797377;79;21173;-75
2021/04/25 08:34:27;;;;;;;5.80;3.83;;;;;;;20.11;23.91;100909.28;1797427;79;21181;-79
2021/04/25 08:36:54;;;;;;;10.20;3.87;;;;;;;20.14;23.94;100902.06;1779758;79;21727;-78
2021/04/25 08:39:22;;;;;;;6.58;2.90;;;;;;;20.06;23.94;100904.99;1801372;77;21167;-76
2021/04/25 08:41:49;;;;;;;4.90;2.87;;;;;;;20.01;23.89;100896.62;1801068;79;21223;-79
2021/04/25 08:44:19;;;;;;;7.90;2.80;;;;;;;20.05;23.76;100903.86;1813902;78;21147;-76
2021/04/25 08:46:48;;;;;;;5.30;3.05;;;;;;;20.08;23.69;100899.37;1813852;79;21167;-77
2021/04/25 08:49:17;;;;;;;6.12;3.40;;;;;;;20.04;23.86;100903.02;1815504;79;21451;-76
2021/04/25 08:51:45;;;;;;;7.25;3.75;;;;;;;19.98;23.50;100899.76;1815222;79;21544;-77
2021/04/25 08:54:13;;;;;;;6.70;3.30;;;;;;;19.87;23.73;100905.31;1761146;79;21108;-76
2021/04/25 08:56:40;;;;;;;7.67;3.47;;;;;;;19.78;23.35;100900.28;1810909;79;21525;-78
2021/04/25 08:59:07;;;;;;;;;;;;;;;19.70;23.96;100893.99;1819448;79;21093;-78
2021/04/25 09:01:34;;;;;;;10.28;3.42;;;;;;;19.70;23.84;100897.23;1809654;79;20529;-78
2021/04/25 09:04:02;;;;;;;11.15;3.20;;;;;;;19.64;23.74;100899.44;1796935;77;21191;-79
2021/04/25 09:06:29;;;;;;;5.67;3.17;;;;;;;19.58;23.39;100895.64;1814261;79;21227;-78
2021/04/25 09:09:04;;;;;;;5.53;3.25;;;;;;;19.51;22.96;100891.53;1784186;79;21347;-76
2021/04/25 09:11:34;;;;;;;4.45;2.98;;;;;;;19.44;23.46;100899.34;1812391;79;21167;-76
2021/04/25 09:14:25;;;;;;;8.28;3.27;;;;;;;19.35;23.52;100898.73;1811663;79;21163;-77
2021/04/25 09:17:01;;;;;;;4.10;3.40;;;;;;;19.26;23.59;100898.08;1814433;78;21434;-78
2021/04/25 09:19:49;;;;;;;6.37;3.70;;;;;;;19.20;23.89;100893.44;1805287;79;21155;-76
2021/04/25 09:22:17;;;;;;;5.00;3.30;;;;;;;19.17;23.87;100880.81;1781811;80;21184;-76
2021/04/25 09:24:45;;;;;;;4.80;3.12;;;;;;;19.14;24.22;100878.50;1781998;80;21167;-78
2021/04/25 09:27:24;;;;;;;4.33;3.25;;;;;;;19.16;24.19;100875.05;1782815;80;21398;-76
2021/04/25 09:29:59;;;;;;;4.58;2.98;;;;;;;19.16;23.99;100870.45;1783498;80;21144;-77
2021/04/25 09:32:31;;;;;;;7.37;3.52;;;;;;;19.20;24.13;100866.28;1783278;80;21639;-77
2021/04/25 09:35:21;;;;;;;6.28;3.27;;;;;;;19.16;24.48;100870.97;1783196;80;21123;-75
2021/04/25 09:37:49;;;;;;;6.65;3.50;;;;;;;19.13;24.71;100879.55;1783629;80;21433;-78
2021/04/25 09:40:21;;;;;;;6.83;3.60;;;;;;;19.08;24.73;100870.66;1783126;80;21137;-79
2021/04/25 09:43:06;;;;;;;4.67;3.33;;;;;;;19.04;24.59;100877.53;1783482;80;21124;-75
2021/04/25 09:45:38;;;;;;;3.95;3.08;;;;;;;19.02;24.59;100874.16;1755071;80;21108;-77
2021/04/25 09:48:28;;;;;;;5.05;3.17;;;;;;;19.00;24.53;100868.11;1783582;80;21139;-76
2021/04/25 09:51:17;;;;;;;4.00;2.98;;;;;;;18.97;24.30;100869.34;1777099;80;21163;-77
2021/04/25 09:54:00;;;;;;;4.95;3.05;;;;;;;18.92;24.39;100852.83;1810611;79;21429;-82
2021/04/25 09:56:39;;;;;;;7.80;3.80;;;;;;;18.91;24.57;100847.09;1809728;79;22072;-77
2021/04/25 09:59:08;;;;;;;5.55;3.42;;;;;;;18.93;24.84;100853.66;1812981;79;21201;-76
2021/04/25 10:01:40;;;;;;;7.05;3.90;;;;;;;18.97;25.00;100859.01;1785668;79;21130;-78
2021/04/25 10:04:36;;;;;;;11.12;3.45;;;;;;;19.01;24.77;100858.92;1783190;79;21117;-77
2021/04/25 10:07:05;;;;;;;8.00;3.37;;;;;;;19.06;24.76;100846.92;1779185;79;21180;-77
2021/04/25 10:09:34;;;;;;;6.22;3.67;;;;;;;19.13;24.91;100838.29;1783710;78;21132;-78
2021/04/25 10:12:02;;;;;;;7.55;3.70;;;;;;;19.17;24.65;100834.13;1786500;79;21132;-76
2021/04/25 10:14:32;;;;;;;7.97;3.55;;;;;;;19.16;24.14;100832.42;1784821;80;21177;-76
2021/04/25 10:17:01;;;;;;;12.13;3.22;;;;;;;19.15;23.93;100833.48;1756770;79;21175;-81
2021/04/25 10:19:29;;;;;;;5.90;3.72;;;;;;;19.13;24.03;100832.86;1791101;79;21200;-78
2021/04/25 10:21:57;;;;;;;6.62;3.42;;;;;;;19.08;24.75;100833.16;1782509;80;21199;-79
2021/04/25 10:24:25;;;;;;;6.60;3.50;;;;;;;19.02;25.05;100836.16;1784112;79;21177;-81
2021/04/25 10:27:02;;;;;;;;;;;;;;;18.96;24.60;100826.95;1816705;79;21661;-76
2021/04/25 10:29:35;;;;;;;5.50;3.67;;;;;;;18.84;24.84;100829.09;1810328;79;20286;-78
2021/04/25 10:32:04;;;;;;;4.97;3.35;;;;;;;18.74;24.98;100829.48;1759347;79;21127;-76
2021/04/25 10:34:31;;;;;;;6.87;2.92;;;;;;;18.70;24.58;100834.47;1814823;79;21132;-81
2021/04/25 10:37:01;;;;;;;8.55;3.77;;;;;;;18.68;24.45;100827.04;1785822;79;21136;-79
2021/04/25 10:39:50;;;;;;;7.75;3.72;;;;;;;18.68;24.77;100834.34;1814957;79;21191;-79
2021/04/25 10:42:24;;;;;;;8.53;4.20;;;;;;;18.65;24.73;100829.31;1813455;79;21208;-79
2021/04/25 10:45:04;;;;;;;6.08;3.45;;;;;;;18.62;24.75;100840.06;1782993;80;21211;-80
2021/04/25 10:47:40;;;;;;;6.08;3.55;;;;;;;18.65;24.81;100841.00;1783534;80;21128;-77
2021/04/25 10:50:19;;;;;;;5.25;3.80;;;;;;;18.64;24.58;100837.14;1783654;80;21147;-77
2021/04/25 10:52:52;;;;;;;7.62;3.35;;;;;;;18.66;24.53;100829.09;1784942;79;21123;-77
2021/04/25 10:55:28;;;;;;;5.60;3.62;;;;;;;18.67;24.79;100821.82;1780603;80;21132;-80
2021/04/25 10:58:07;;;;;;;6.92;3.08;;;;;;;18.69;24.72;100821.95;1785887;79;21441;-77
2021/04/25 11:00:39;;;;;;;3.67;2.92;;;;;;;18.73;24.77;100823.22;1782859;80;21207;-79
2021/04/25 11:03:16;;;;;;;9.28;3.20;;;;;;;18.78;24.70;100828.56;1783063;79;21691;-77
2021/04/25 11:05:45;;;;;;;6.27;3.23;;;;;;;18.80;24.55;100818.33;1785525;77;21156;-79
2021/04/25 11:08:21;;;;;;;6.03;3.25;;;;;;;18.83;24.21;100811.15;1741496;79;21206;-77
2021/04/25 11:11:07;;;;;;;5.80;3.15;;;;;;;18.84;23.99;100814.17;1805435;77;21179;-78
2021/04/25 11:13:46;;;;;;;4.90;3.22;;;;;;;18.84;24.60;100811.45;1790166;77;21678;-77
2021/04/25 11:16:24;;;;;;;3.67;3.00;;;;;;;18.84;24.42;100811.45;1805495;77;21192;-75
2021/04/25 11:19:12;;;;;;;7.78;2.90;;;;;;;18.86;24.45;100808.03;1813011;79;21164;-77
2021/04/25 11:21:49;;;;;;;7.47;3.35;;;;;;;18.86;24.46;100795.83;1805987;77;21164;-77
2021/04/25 11:24:27;;;;;;;5.60;3.35;;;;;;;18.88;24.52;100791.02;1810276;79;21184;-79
2021/04/25 11:26:58;;;;;;;8.28;3.50;;;;;;;18.92;24.88;100792.28;1781361;79;21654;-78
2021/04/25 11:29:48;;;;;;;4.65;3.02;;;;;;;18.98;24.79;100790.09;1800556;79;21104;-78
2021/04/25 11:32:27;;;;;;;8.15;3.00;;;;;;;19.03;24.99;100791.70;1789317;79;21132;-78
2021/04/25 11:35:00;;;;;;;11.95;3.25;;;;;;;19.08;24.16;100787.84;1781289;79;21092;-78
2021/04/25 11:37:28;;;;;;;4.87;3.27;;;;;;;19.11;24.09;100778.43;1785187;79;21140;-78